createdAt,value
2018-09-13T00:00:52.595Z,3.87
2018-09-13T00:03:21.245Z,3.40
2018-09-13T00:05:49.460Z,3.40
2018-09-13T00:08:19.526Z,3.90
2018-09-13T00:10:49.662Z,3.25
2018-09-13T00:13:19.821Z,3.62
2018-09-13T00:15:50.170Z,3.80
2018-09-13T00:18:18.964Z,3.20
2018-09-13T00:20:49.270Z,3.37
2018-09-13T00:23:18.453Z,2.97
2018-09-13T00:25:47.145Z,3.65
2018-09-13T00:28:17.336Z,3.30
2018-09-13T00:30:47.136Z,3.30
2018-09-13T00:33:16.949Z,3.45
2018-09-13T00:35:45.641Z,3.78
2018-09-13T00:38:15.971Z,3.80
2018-09-13T00:40:47.785Z,3.75
2018-09-13T00:43:18.132Z,3.12
2018-09-13T00:45:49.788Z,3.40
2018-09-13T00:48:20.188Z,3.65
2018-09-13T00:50:50.247Z,3.70
2018-09-13T00:53:18.908Z,3.50
2018-09-13T00:55:48.873Z,4.00
2018-09-13T00:58:17.544Z,4.00
2018-09-13T01:00:48.353Z,3.85
2018-09-13T01:03:18.539Z,4.10
2018-09-13T01:05:48.833Z,3.40
2018-09-13T01:08:19.473Z,3.33
2018-09-13T01:10:49.762Z,3.53
2018-09-13T01:13:19.844Z,3.47
2018-09-13T01:15:49.758Z,3.87
2018-09-13T01:18:18.470Z,3.60
2018-09-13T01:20:48.590Z,4.37
2018-09-13T01:23:19.382Z,3.67
2018-09-13T01:25:49.748Z,4.00
2018-09-13T01:28:18.428Z,3.95
2018-09-13T01:30:48.635Z,3.47
2018-09-13T01:33:20.312Z,3.28
2018-09-13T01:35:50.527Z,3.22
2018-09-13T01:38:19.206Z,3.25
2018-09-13T01:40:50.884Z,3.35
2018-09-13T01:43:20.987Z,3.25
2018-09-13T01:45:49.678Z,2.85
2018-09-13T01:48:18.881Z,2.90
2018-09-13T01:50:47.508Z,3.35
2018-09-13T01:53:17.998Z,2.87
2018-09-13T01:55:48.238Z,3.00
2018-09-13T01:58:18.637Z,2.97
2018-09-13T02:00:50.230Z,2.67
2018-09-13T02:03:20.320Z,3.70
2018-09-13T02:05:52.216Z,3.00
2018-09-13T02:08:24.206Z,3.08
2018-09-13T02:10:56.026Z,3.70
2018-09-13T02:13:25.379Z,3.58
2018-09-13T02:15:55.573Z,4.00
2018-09-13T02:18:24.485Z,3.45
2018-09-13T02:20:54.818Z,4.07
2018-09-13T02:23:24.994Z,3.83
2018-09-13T02:25:53.843Z,3.80
2018-09-13T02:28:22.533Z,4.00
2018-09-13T02:30:52.734Z,4.05
2018-09-13T02:33:21.284Z,3.80
2018-09-13T02:35:51.894Z,3.85
2018-09-13T02:38:20.488Z,3.15
2018-09-13T02:40:52.181Z,3.80
2018-09-13T02:43:21.349Z,3.75
2018-09-13T02:45:51.705Z,3.35
2018-09-13T02:48:23.303Z,3.50
2018-09-13T02:50:52.290Z,3.50
2018-09-13T02:53:22.736Z,3.70
2018-09-13T02:55:53.064Z,3.80
2018-09-13T02:58:22.626Z,4.82
2018-09-13T03:00:53.606Z,5.12
2018-09-13T03:03:23.649Z,5.20
2018-09-13T03:05:55.110Z,6.62
2018-09-13T03:08:26.922Z,7.32
2018-09-13T03:10:57.124Z,7.43
2018-09-13T03:13:25.906Z,7.93
2018-09-13T03:15:54.886Z,7.30
2018-09-13T03:18:25.129Z,6.62
2018-09-13T03:20:56.993Z,6.35
2018-09-13T03:23:25.608Z,6.35
2018-09-13T03:25:55.680Z,6.65
2018-09-13T03:28:26.118Z,6.35
2018-09-13T03:30:58.004Z,6.47
2018-09-13T03:33:28.319Z,5.75
2018-09-13T03:35:58.669Z,5.60
2018-09-13T03:38:28.881Z,4.93
2018-09-13T03:40:56.806Z,4.68
2018-09-13T03:43:26.952Z,5.40
2018-09-13T03:45:57.120Z,5.18
2018-09-13T03:48:28.690Z,4.03
2018-09-13T03:50:58.967Z,4.22
2018-09-13T03:53:29.673Z,4.80
2018-09-13T03:55:59.892Z,4.87
2018-09-13T03:58:30.138Z,4.75
2018-09-13T04:01:00.225Z,3.65
2018-09-13T04:03:30.378Z,3.83
2018-09-13T04:06:01.349Z,4.05
2018-09-13T04:08:32.635Z,4.00
2018-09-13T04:11:01.830Z,4.20
2018-09-13T04:13:30.532Z,3.90
2018-09-13T04:16:00.796Z,3.90
2018-09-13T04:18:29.943Z,3.92
2018-09-13T04:21:00.156Z,4.00
2018-09-13T04:23:30.361Z,3.95
2018-09-13T04:25:58.984Z,4.40
2018-09-13T04:28:29.172Z,3.87
2018-09-13T04:30:58.704Z,5.05
2018-09-13T04:33:29.047Z,3.80
2018-09-13T04:35:59.247Z,3.90
2018-09-13T04:38:27.885Z,4.05
2018-09-13T04:40:56.682Z,3.95
2018-09-13T04:43:26.737Z,3.67
2018-09-13T04:45:56.939Z,3.97
2018-09-13T04:48:28.454Z,3.72
2018-09-13T04:50:57.310Z,4.18
2018-09-13T04:53:25.944Z,3.78
2018-09-13T04:55:56.106Z,3.30
2018-09-13T04:58:28.039Z,4.03
2018-09-13T05:00:58.261Z,4.43
2018-09-13T05:03:28.392Z,3.45
2018-09-13T05:05:59.935Z,3.80
2018-09-13T05:08:30.356Z,4.00
2018-09-13T05:11:00.630Z,3.53
2018-09-13T05:13:30.436Z,3.90
2018-09-13T05:16:01.281Z,3.80
2018-09-13T05:18:32.847Z,3.92
2018-09-13T05:21:03.032Z,3.60
2018-09-13T05:23:31.675Z,4.07
2018-09-13T05:26:02.006Z,3.00
2018-09-13T05:28:32.286Z,3.28
2018-09-13T05:31:02.463Z,2.75
2018-09-13T05:33:31.650Z,4.37
2018-09-13T05:36:01.767Z,3.28
2018-09-13T05:38:33.627Z,3.50
2018-09-13T05:41:03.477Z,4.10
2018-09-13T05:43:32.230Z,4.20
2018-09-13T05:46:04.446Z,3.65
2018-09-13T05:48:34.640Z,3.30
2018-09-13T05:51:03.319Z,3.53
2018-09-13T05:53:32.113Z,3.20
2018-09-13T05:56:02.245Z,3.55
2018-09-13T05:58:30.952Z,3.65
2018-09-13T06:01:01.056Z,3.08
2018-09-13T06:03:31.232Z,3.17
2018-09-13T06:06:02.800Z,3.62
2018-09-13T06:08:33.015Z,3.17
2018-09-13T06:11:02.177Z,3.60
2018-09-13T06:13:32.805Z,3.42
2018-09-13T06:16:02.842Z,3.72
2018-09-13T06:18:33.626Z,3.37
2018-09-13T06:21:04.350Z,4.15
2018-09-13T06:23:36.505Z,3.75
2018-09-13T06:26:05.073Z,2.62
2018-09-13T06:28:34.378Z,3.62
2018-09-13T06:31:04.712Z,2.80
2018-09-13T06:33:33.288Z,3.20
2018-09-13T06:36:01.979Z,2.85
2018-09-13T06:38:33.591Z,2.58
2018-09-13T06:41:05.302Z,3.33
2018-09-13T06:43:34.979Z,3.05
2018-09-13T06:46:05.993Z,3.47
2018-09-13T06:48:35.398Z,3.05
2018-09-13T06:51:05.653Z,3.40
2018-09-13T06:53:35.751Z,2.55
2018-09-13T06:56:05.909Z,2.80
2018-09-13T06:58:36.159Z,3.00
2018-09-13T07:01:06.382Z,2.90
2018-09-13T07:03:36.509Z,3.28
2018-09-13T07:06:06.608Z,2.70
2018-09-13T07:08:38.198Z,3.15
2018-09-13T07:11:08.493Z,2.80
2018-09-13T07:13:39.185Z,2.83
2018-09-13T07:16:09.031Z,2.92
2018-09-13T07:18:39.208Z,2.60
2018-09-13T07:21:10.510Z,2.75
2018-09-13T07:23:41.044Z,3.22
2018-09-13T07:26:11.138Z,3.78
2018-09-13T07:28:41.203Z,2.75
2018-09-13T07:31:11.245Z,2.75
2018-09-13T07:33:39.836Z,2.72
2018-09-13T07:36:08.551Z,2.87
2018-09-13T07:38:40.132Z,2.92
2018-09-13T07:41:10.202Z,2.65
2018-09-13T07:43:41.741Z,2.75
2018-09-13T07:46:10.338Z,2.22
2018-09-13T07:48:39.017Z,2.80
2018-09-13T07:51:07.706Z,2.62
2018-09-13T07:53:37.859Z,3.28
2018-09-13T07:56:08.267Z,2.97
2018-09-13T07:58:38.507Z,2.85
2018-09-13T08:01:09.349Z,3.80
2018-09-13T08:03:39.460Z,2.70
2018-09-13T08:06:10.215Z,2.60
2018-09-13T08:08:41.826Z,2.87
2018-09-13T08:11:10.538Z,2.95
2018-09-13T08:13:41.487Z,2.83
2018-09-13T08:16:10.452Z,3.05
2018-09-13T08:18:40.530Z,2.78
2018-09-13T08:21:10.787Z,2.85
2018-09-13T08:23:40.914Z,2.55
2018-09-13T08:26:08.860Z,2.65
2018-09-13T08:28:40.482Z,3.10
2018-09-13T08:31:10.695Z,2.75
2018-09-13T08:33:42.179Z,2.70
2018-09-13T08:36:12.501Z,2.80
2018-09-13T08:38:42.635Z,3.12
2018-09-13T08:41:12.897Z,2.47
2018-09-13T08:43:41.467Z,2.70
2018-09-13T08:46:11.777Z,2.65
2018-09-13T08:48:40.491Z,2.50
2018-09-13T08:51:12.126Z,2.60
2018-09-13T08:53:42.235Z,2.42
2018-09-13T08:56:11.279Z,2.35
2018-09-13T08:58:40.346Z,2.22
2018-09-13T09:01:08.959Z,1.95
2018-09-13T09:03:37.580Z,2.03
2018-09-13T09:06:07.215Z,1.90
2018-09-13T09:08:37.315Z,2.30
2018-09-13T09:11:06.901Z,2.15
2018-09-13T09:13:37.239Z,1.80
2018-09-13T09:16:07.073Z,2.00
2018-09-13T09:18:37.817Z,1.75
2018-09-13T09:21:09.563Z,2.08
2018-09-13T09:23:38.745Z,1.98
2018-09-13T09:26:09.358Z,1.90
2018-09-13T09:28:39.599Z,2.12
2018-09-13T09:31:08.301Z,2.15
2018-09-13T09:33:38.397Z,2.30
2018-09-13T09:36:06.984Z,2.37
2018-09-13T09:38:37.008Z,1.73
2018-09-13T09:41:07.255Z,1.80
2018-09-13T09:43:37.346Z,1.75
2018-09-13T09:46:07.390Z,2.05
2018-09-13T09:48:38.567Z,1.90
2018-09-13T09:51:08.649Z,2.08
2018-09-13T09:53:36.924Z,2.15
2018-09-13T09:56:05.824Z,2.20
2018-09-13T09:58:35.900Z,2.03
2018-09-13T10:01:21.825Z,1.87
2018-09-13T10:03:51.880Z,2.35
2018-09-13T10:06:22.043Z,2.30
2018-09-13T10:08:52.292Z,2.20
2018-09-13T10:11:22.370Z,2.15
2018-09-13T10:13:54.183Z,2.08
2018-09-13T10:16:41.472Z,1.90
2018-09-13T10:19:27.559Z,2.20
2018-09-13T10:22:15.411Z,2.03
2018-09-13T10:25:03.745Z,1.83
2018-09-13T10:27:49.326Z,2.60
2018-09-13T10:30:35.737Z,2.00
2018-09-13T10:33:23.980Z,2.08
2018-09-13T10:36:12.009Z,2.20
2018-09-13T10:38:58.324Z,2.08
2018-09-13T10:41:44.709Z,1.83
2018-09-13T10:44:32.355Z,2.05
2018-09-13T10:47:18.710Z,2.33
2018-09-13T10:50:06.777Z,1.87
2018-09-13T10:52:44.368Z,2.15
2018-09-13T10:55:12.981Z,2.05
2018-09-13T10:57:44.585Z,2.12
2018-09-13T11:00:15.420Z,2.30
2018-09-13T11:02:45.760Z,2.30
2018-09-13T11:05:16.017Z,2.20
2018-09-13T11:07:46.119Z,2.03
2018-09-13T11:10:15.096Z,1.60
2018-09-13T11:13:01.406Z,1.83
2018-09-13T11:15:38.332Z,2.20
2018-09-13T11:18:08.106Z,2.40
2018-09-13T11:20:39.977Z,1.80
2018-09-13T11:23:08.528Z,1.95
2018-09-13T11:25:38.558Z,2.20
2018-09-13T11:28:07.750Z,2.22
2018-09-13T11:30:36.712Z,2.20
2018-09-13T11:33:09.038Z,2.15
2018-09-13T11:35:38.075Z,2.45
2018-09-13T11:38:09.364Z,1.73
2018-09-13T11:40:42.191Z,2.03
2018-09-13T11:43:12.203Z,1.95
2018-09-13T11:45:40.778Z,2.17
2018-09-13T11:48:11.089Z,2.25
2018-09-13T11:50:39.836Z,1.80
2018-09-13T11:53:08.436Z,1.83
2018-09-13T11:55:47.149Z,1.83
2018-09-13T11:58:19.327Z,1.65
2018-09-13T12:00:50.534Z,1.62
2018-09-13T12:03:19.058Z,2.35
2018-09-13T12:05:47.547Z,2.30
2018-09-13T12:08:19.209Z,1.73
2018-09-13T12:10:48.412Z,2.20
2018-09-13T12:13:19.874Z,2.05
2018-09-13T12:15:49.977Z,2.10
2018-09-13T12:18:21.555Z,2.05
2018-09-13T12:20:51.593Z,1.92
2018-09-13T12:23:19.583Z,1.83
2018-09-13T12:25:49.901Z,1.80
2018-09-13T12:28:20.097Z,2.00
2018-09-13T12:30:51.280Z,2.08
2018-09-13T12:33:21.479Z,1.92
2018-09-13T12:35:51.578Z,2.00
2018-09-13T12:38:21.692Z,1.55
2018-09-13T12:40:50.328Z,1.70
2018-09-13T12:43:20.447Z,1.77
2018-09-13T12:45:50.471Z,2.00
2018-09-13T12:48:20.851Z,2.10
2018-09-13T12:50:49.393Z,1.92
2018-09-13T12:53:19.611Z,1.70
2018-09-13T12:55:57.963Z,2.20
2018-09-13T12:58:27.618Z,2.00
2018-09-13T13:00:57.728Z,1.90
2018-09-13T13:03:29.619Z,2.20
2018-09-13T13:06:00.175Z,1.95
2018-09-13T13:08:30.236Z,1.33
2018-09-13T13:11:01.805Z,1.60
2018-09-13T13:13:31.833Z,1.60
2018-09-13T13:16:00.516Z,1.75
2018-09-13T13:18:30.909Z,1.80
2018-09-13T13:21:02.350Z,2.08
2018-09-13T13:23:31.573Z,2.12
2018-09-13T13:26:00.157Z,1.75
2018-09-13T13:28:31.784Z,1.60
2018-09-13T13:31:01.830Z,1.67
2018-09-13T13:33:30.323Z,1.67
2018-09-13T13:36:00.149Z,1.48
2018-09-13T13:38:32.018Z,1.30
2018-09-13T13:41:02.150Z,1.55
2018-09-13T13:43:32.190Z,1.77
2018-09-13T13:46:02.399Z,1.35
2018-09-13T13:48:34.205Z,1.85
2018-09-13T13:51:04.809Z,1.50
2018-09-13T13:53:34.843Z,2.00
2018-09-13T13:56:03.536Z,1.75
2018-09-13T13:58:33.649Z,1.98
2018-09-13T14:01:02.244Z,1.60
2018-09-13T14:03:33.723Z,1.67
2018-09-13T14:06:02.264Z,1.77
2018-09-13T14:08:30.781Z,1.55
2018-09-13T14:11:01.422Z,1.70
2018-09-13T14:13:32.997Z,1.73
2018-09-13T14:16:03.022Z,1.87
2018-09-13T14:18:33.193Z,2.15
2018-09-13T14:21:01.785Z,1.95
2018-09-13T14:23:33.236Z,1.70
2018-09-13T14:26:02.321Z,1.73
2018-09-13T14:28:32.431Z,1.92
2018-09-13T14:31:02.568Z,1.85
2018-09-13T14:33:31.122Z,1.75
2018-09-13T14:35:59.842Z,1.80
2018-09-13T14:38:29.915Z,1.65
2018-09-13T14:41:00.079Z,1.87
2018-09-13T14:43:30.302Z,1.70
2018-09-13T14:46:02.040Z,1.70
2018-09-13T14:48:31.973Z,1.90
2018-09-13T14:50:59.753Z,1.80
2018-09-13T14:53:30.256Z,1.40
2018-09-13T14:56:00.660Z,1.60
2018-09-13T14:58:30.891Z,1.60
2018-09-13T15:00:59.376Z,1.77
2018-09-13T15:03:31.076Z,2.53
2018-09-13T15:06:01.122Z,1.55
2018-09-13T15:08:29.640Z,1.60
2018-09-13T15:10:57.746Z,1.77
2018-09-13T15:13:26.297Z,1.75
2018-09-13T15:15:54.899Z,1.48
2018-09-13T15:18:25.005Z,1.75
2018-09-13T15:20:56.591Z,1.20
2018-09-13T15:23:26.670Z,1.60
2018-09-13T15:25:57.045Z,1.30
2018-09-13T15:28:26.617Z,1.50
2018-09-13T15:30:55.242Z,1.10
2018-09-13T15:33:23.782Z,1.40
2018-09-13T15:35:52.552Z,1.40
2018-09-13T15:38:22.623Z,1.55
2018-09-13T15:40:52.798Z,1.33
2018-09-13T15:43:22.295Z,1.50
2018-09-13T15:45:50.659Z,1.30
2018-09-13T15:48:20.758Z,1.25
2018-09-13T15:50:49.378Z,1.60
2018-09-13T15:53:19.466Z,1.60
2018-09-13T15:55:47.868Z,1.30
2018-09-13T15:58:16.951Z,1.60
2018-09-13T16:00:48.563Z,1.25
2018-09-13T16:03:18.797Z,1.27
2018-09-13T16:05:47.450Z,1.50
2018-09-13T16:08:18.090Z,1.37
2018-09-13T16:10:47.175Z,2.05
2018-09-13T16:13:17.428Z,1.62
2018-09-13T16:15:45.965Z,1.62
2018-09-13T16:18:17.481Z,1.62
2018-09-13T16:20:48.019Z,1.85
2018-09-13T16:23:16.650Z,1.33
2018-09-13T16:25:46.664Z,1.75
2018-09-13T16:28:16.099Z,1.62
2018-09-13T16:30:46.115Z,1.40
2018-09-13T16:33:16.886Z,1.50
2018-09-13T16:35:49.113Z,1.90
2018-09-13T16:38:36.910Z,1.83
2018-09-13T16:41:22.183Z,1.85
2018-09-13T16:44:04.694Z,1.75
2018-09-13T16:46:52.505Z,2.17
2018-09-13T16:49:21.152Z,1.87
2018-09-13T16:51:51.164Z,1.77
2018-09-13T16:54:22.575Z,1.55
2018-09-13T16:56:53.403Z,1.50
2018-09-13T16:59:25.030Z,1.87
2018-09-13T17:01:56.833Z,1.73
2018-09-13T17:04:26.972Z,1.75
2018-09-13T17:06:57.211Z,2.10
2018-09-13T17:09:25.912Z,1.65
2018-09-13T17:11:56.119Z,1.98
2018-09-13T17:14:27.769Z,2.25
2018-09-13T17:16:57.543Z,1.87
2018-09-13T17:19:26.108Z,2.12
2018-09-13T17:21:57.600Z,1.65
2018-09-13T17:24:26.279Z,4.78
2018-09-13T17:26:57.974Z,3.72
2018-09-13T17:29:29.897Z,3.05
2018-09-13T17:31:58.359Z,2.50
2018-09-13T17:34:28.426Z,2.55
2018-09-13T17:36:58.626Z,2.37
2018-09-13T17:39:28.700Z,2.30
2018-09-13T17:41:59.296Z,2.83
2018-09-13T17:44:30.868Z,3.35
2018-09-13T17:47:01.014Z,3.08
2018-09-13T17:49:31.937Z,2.78
2018-09-13T17:52:00.579Z,2.53
2018-09-13T17:54:32.065Z,3.53
2018-09-13T17:57:01.174Z,2.80
2018-09-13T17:59:29.879Z,3.62
2018-09-13T18:02:01.425Z,3.40
2018-09-13T18:04:31.544Z,3.30
2018-09-13T18:07:00.317Z,2.92
2018-09-13T18:09:29.062Z,3.40
2018-09-13T18:12:00.850Z,4.05
2018-09-13T18:14:31.460Z,3.17
2018-09-13T18:17:00.199Z,2.72
2018-09-13T18:19:28.883Z,3.50
2018-09-13T18:21:59.128Z,4.28
2018-09-13T18:24:29.228Z,4.03
2018-09-13T18:26:59.446Z,3.80
2018-09-13T18:29:29.286Z,3.30
2018-09-13T18:31:59.367Z,3.45
2018-09-13T18:34:31.337Z,4.50
2018-09-13T18:37:03.060Z,6.12
2018-09-13T18:39:34.769Z,4.43
2018-09-13T18:42:05.610Z,5.30
2018-09-13T18:44:34.254Z,4.75
2018-09-13T18:47:03.027Z,4.15
2018-09-13T18:49:32.689Z,4.53
2018-09-13T18:52:04.446Z,5.68
2018-09-13T18:54:34.668Z,4.50
2018-09-13T18:57:06.422Z,4.20
2018-09-13T18:59:35.280Z,4.30
2018-09-13T19:02:05.314Z,4.57
2018-09-13T19:04:35.659Z,5.22
2018-09-13T19:07:05.749Z,5.60
2018-09-13T19:09:35.891Z,4.35
2018-09-13T19:12:04.524Z,5.20
2018-09-13T19:14:35.080Z,6.87
2018-09-13T19:17:05.398Z,8.57
2018-09-13T19:19:35.582Z,10.68
2018-09-13T19:22:05.208Z,6.72
2018-09-13T19:24:36.912Z,9.98
2018-09-13T19:27:08.889Z,8.05
2018-09-13T19:29:40.805Z,8.20
2018-09-13T19:32:10.952Z,10.70
2018-09-13T19:34:42.862Z,8.80
2018-09-13T19:37:13.388Z,6.62
2018-09-13T19:39:42.102Z,6.47
2018-09-13T19:42:14.707Z,8.82
2018-09-13T19:44:44.847Z,7.32
2018-09-13T19:47:16.735Z,15.82
2018-09-13T19:49:46.192Z,10.15
2018-09-13T19:52:16.521Z,11.50
2018-09-13T19:54:48.527Z,7.12
2018-09-13T19:57:18.969Z,9.88
2018-09-13T19:59:50.798Z,7.82
2018-09-13T20:02:21.601Z,10.10
2018-09-13T20:04:53.333Z,8.95
2018-09-13T20:07:22.132Z,7.25
2018-09-13T20:09:53.880Z,7.62
2018-09-13T20:12:24.199Z,6.72
2018-09-13T20:14:56.193Z,7.05
2018-09-13T20:17:26.492Z,6.25
2018-09-13T20:19:56.668Z,6.50
2018-09-13T20:22:27.058Z,7.45
2018-09-13T20:24:56.741Z,7.28
2018-09-13T20:27:26.935Z,6.95
2018-09-13T20:29:57.697Z,6.87
2018-09-13T20:32:29.423Z,8.45
2018-09-13T20:34:59.551Z,7.00
2018-09-13T20:37:29.932Z,7.00
2018-09-13T20:39:58.640Z,6.82
2018-09-13T20:42:30.201Z,8.57
2018-09-13T20:45:00.517Z,6.78
2018-09-13T20:47:32.221Z,6.78
2018-09-13T20:50:03.362Z,6.70
2018-09-13T20:52:33.598Z,7.28
2018-09-13T20:55:02.231Z,7.87
2018-09-13T20:57:33.439Z,7.07
2018-09-13T21:00:02.557Z,7.30
2018-09-13T21:02:31.427Z,6.72
2018-09-13T21:05:00.060Z,7.57
2018-09-13T21:07:30.454Z,7.53
2018-09-13T21:10:00.755Z,6.85
2018-09-13T21:12:28.669Z,7.55
2018-09-13T21:14:57.780Z,7.40
2018-09-13T21:17:26.909Z,7.32
2018-09-13T21:19:58.872Z,7.28
2018-09-13T21:22:27.676Z,7.32
2018-09-13T21:24:56.494Z,7.00
2018-09-13T21:27:27.544Z,7.37
2018-09-13T21:29:59.706Z,8.50
2018-09-13T21:32:31.462Z,8.27
2018-09-13T21:35:03.423Z,7.57
2018-09-13T21:37:32.068Z,7.90
2018-09-13T21:40:00.961Z,6.62
2018-09-13T21:42:29.867Z,7.22
2018-09-13T21:44:58.464Z,7.20
2018-09-13T21:47:28.536Z,6.90
2018-09-13T21:49:58.715Z,7.20
2018-09-13T21:52:28.801Z,7.12
2018-09-13T21:54:59.088Z,6.37
2018-09-13T21:57:30.731Z,6.72
2018-09-13T22:00:02.213Z,6.70
2018-09-13T22:02:32.651Z,8.25
2018-09-13T22:05:03.216Z,7.60
2018-09-13T22:07:33.330Z,7.22
2018-09-13T22:10:03.620Z,8.30
2018-09-13T22:12:32.429Z,7.82
2018-09-13T22:15:01.024Z,8.80
2018-09-13T22:17:32.903Z,7.35
2018-09-13T22:20:04.658Z,7.93
2018-09-13T22:22:36.451Z,7.45
2018-09-13T22:25:06.606Z,7.15
2018-09-13T22:27:35.203Z,6.75
2018-09-13T22:30:06.888Z,6.93
2018-09-13T22:32:36.122Z,6.32
2018-09-13T22:35:04.815Z,5.93
2018-09-13T22:37:35.467Z,6.87
2018-09-13T22:40:04.153Z,6.43
2018-09-13T22:42:35.931Z,5.53
2018-09-13T22:45:06.937Z,5.05
2018-09-13T22:47:35.555Z,4.53
2018-09-13T22:50:03.755Z,4.97
2018-09-13T22:52:33.986Z,5.47
2018-09-13T22:55:05.582Z,4.97
2018-09-13T22:57:34.273Z,5.55
2018-09-13T23:00:04.422Z,5.57
2018-09-13T23:02:48.421Z,5.00
2018-09-13T23:05:19.162Z,5.50
2018-09-13T23:07:49.351Z,5.15
2018-09-13T23:10:19.836Z,5.15
2018-09-13T23:12:51.716Z,5.68
2018-09-13T23:15:21.465Z,8.75
2018-09-13T23:17:53.223Z,8.18
2018-09-13T23:20:23.220Z,9.70
2018-09-13T23:22:51.941Z,8.30
2018-09-13T23:25:20.695Z,7.90
2018-09-13T23:27:49.328Z,6.43
2018-09-13T23:30:20.101Z,6.68
2018-09-13T23:32:48.813Z,6.25
2018-09-13T23:35:17.485Z,7.50
2018-09-13T23:37:46.232Z,6.28
2018-09-13T23:40:16.483Z,7.43
2018-09-13T23:42:44.957Z,8.45
2018-09-13T23:45:16.521Z,8.25
2018-09-13T23:47:45.457Z,8.30
2018-09-13T23:50:15.641Z,9.50
2018-09-13T23:52:47.307Z,9.80
2018-09-13T23:55:17.741Z,7.80
2018-09-13T23:57:46.527Z,8.10
